createdAt,value
2023-01-08T00:00:55.794Z,7.87
2023-01-08T00:03:22.435Z,7.83
2023-01-08T00:05:49.142Z,7.80
2023-01-08T00:08:16.088Z,7.84
2023-01-08T00:10:42.621Z,7.85
2023-01-08T00:13:09.174Z,7.89
2023-01-08T00:15:35.944Z,7.87
2023-01-08T00:18:02.527Z,7.85
2023-01-08T00:20:29.520Z,7.85
2023-01-08T00:22:56.087Z,7.86
2023-01-08T00:25:22.654Z,7.85
2023-01-08T00:27:49.210Z,7.88
2023-01-08T00:30:15.689Z,7.83
2023-01-08T00:32:42.227Z,7.81
2023-01-08T00:35:09.462Z,7.82
2023-01-08T00:37:35.957Z,7.84
2023-01-08T00:40:02.487Z,7.82
2023-01-08T00:42:28.926Z,7.81
2023-01-08T00:44:55.401Z,7.79
2023-01-08T00:47:21.829Z,7.83
2023-01-08T00:49:48.384Z,7.85
2023-01-08T00:52:14.901Z,7.84
2023-01-08T00:54:41.443Z,7.85
2023-01-08T00:57:08.009Z,7.87
2023-01-08T00:59:34.473Z,7.87
2023-01-08T01:02:01.126Z,7.88
2023-01-08T01:04:27.822Z,7.92
2023-01-08T01:06:54.397Z,7.92
2023-01-08T01:09:20.844Z,7.95
2023-01-08T01:11:47.315Z,7.98
2023-01-08T01:14:13.804Z,8.01
2023-01-08T01:16:41.678Z,8.09
2023-01-08T01:19:08.619Z,8.14
2023-01-08T01:21:35.492Z,8.21
2023-01-08T01:24:05.027Z,8.26
2023-01-08T01:26:32.734Z,8.36
2023-01-08T01:29:00.254Z,8.42
2023-01-08T01:31:30.470Z,8.46
2023-01-08T01:33:57.242Z,8.51
2023-01-08T01:36:25.172Z,8.53
2023-01-08T01:38:54.019Z,8.53
2023-01-08T01:41:38.323Z,8.59
2023-01-08T01:44:41.909Z,8.61
2023-01-08T01:47:16.056Z,8.61
2023-01-08T01:49:47.620Z,8.60
2023-01-08T01:52:14.217Z,8.58
2023-01-08T01:54:40.795Z,8.58
2023-01-08T01:57:08.456Z,8.56
2023-01-08T01:59:34.903Z,8.59
2023-01-08T02:02:02.110Z,8.61
2023-01-08T02:04:28.628Z,8.63
2023-01-08T02:07:17.432Z,8.62
2023-01-08T02:09:51.265Z,8.55
2023-01-08T02:12:32.625Z,8.54
2023-01-08T02:15:08.413Z,8.53
2023-01-08T02:17:53.558Z,8.49
2023-01-08T02:20:39.193Z,8.46
2023-01-08T02:23:15.439Z,8.43
2023-01-08T02:26:09.563Z,8.42
2023-01-08T02:28:53.183Z,8.40
2023-01-08T02:31:21.524Z,8.37
2023-01-08T02:33:47.984Z,8.37
2023-01-08T02:36:46.323Z,8.31
2023-01-08T02:39:44.997Z,8.34
2023-01-08T02:42:19.778Z,8.37
2023-01-08T02:45:10.871Z,8.37
2023-01-08T02:47:52.616Z,8.40
2023-01-08T02:50:35.363Z,8.41
2023-01-08T02:53:18.765Z,8.40
2023-01-08T02:55:49.964Z,8.42
2023-01-08T02:58:17.060Z,8.44
2023-01-08T03:00:46.735Z,8.43
2023-01-08T03:03:19.362Z,8.47
2023-01-08T03:05:50.712Z,8.47
2023-01-08T03:08:19.121Z,8.46
2023-01-08T03:10:53.214Z,8.43
2023-01-08T03:13:26.502Z,8.43
2023-01-08T03:15:58.887Z,8.46
2023-01-08T03:18:34.348Z,8.43
2023-01-08T03:21:03.763Z,8.42
2023-01-08T03:23:33.634Z,8.39
2023-01-08T03:26:02.164Z,8.38
2023-01-08T03:28:33.443Z,8.38
2023-01-08T03:31:02.611Z,8.37
2023-01-08T03:33:31.798Z,8.38
2023-01-08T03:36:01.839Z,8.37
2023-01-08T03:38:33.592Z,8.34
2023-01-08T03:41:09.711Z,8.32
2023-01-08T03:43:36.377Z,8.30
2023-01-08T03:46:09.560Z,8.31
2023-01-08T03:48:38.492Z,8.30
2023-01-08T03:51:09.501Z,8.30
2023-01-08T03:53:36.493Z,8.28
2023-01-08T03:56:03.152Z,8.31
2023-01-08T03:58:29.630Z,8.29
2023-01-08T04:00:56.197Z,8.27
2023-01-08T04:03:24.512Z,8.26
2023-01-08T04:05:51.066Z,8.25
2023-01-08T04:08:17.541Z,8.29
2023-01-08T04:10:44.080Z,8.25
2023-01-08T04:13:10.566Z,8.27
2023-01-08T04:15:37.113Z,8.27
2023-01-08T04:18:03.705Z,8.30
2023-01-08T04:20:30.164Z,8.29
2023-01-08T04:22:56.610Z,8.28
2023-01-08T04:25:23.099Z,8.28
2023-01-08T04:27:49.559Z,8.25
2023-01-08T04:30:16.010Z,8.25
2023-01-08T04:32:42.532Z,8.22
2023-01-08T04:35:09.449Z,8.16
2023-01-08T04:37:35.892Z,8.17
2023-01-08T04:40:02.359Z,8.14
2023-01-08T04:42:28.842Z,8.14
2023-01-08T04:44:55.297Z,8.12
2023-01-08T04:47:21.774Z,8.12
2023-01-08T04:49:48.246Z,8.11
2023-01-08T04:52:14.720Z,8.09
2023-01-08T04:54:41.191Z,8.08
2023-01-08T04:57:08.023Z,8.02
2023-01-08T04:59:34.516Z,7.98
2023-01-08T05:02:01.114Z,7.97
2023-01-08T05:04:27.714Z,7.94
2023-01-08T05:06:54.242Z,7.90
2023-01-08T05:09:20.707Z,7.91
2023-01-08T05:11:47.134Z,7.87
2023-01-08T05:14:13.608Z,7.87
2023-01-08T05:16:40.203Z,7.84
2023-01-08T05:19:06.729Z,7.81
2023-01-08T05:21:33.345Z,7.78
2023-01-08T05:23:59.856Z,7.79
2023-01-08T05:26:26.319Z,7.74
2023-01-08T05:28:53.025Z,7.70
2023-01-08T05:31:19.708Z,7.69
2023-01-08T05:33:46.484Z,7.66
2023-01-08T05:36:13.603Z,7.60
2023-01-08T05:38:40.256Z,7.56
2023-01-08T05:41:07.103Z,7.56
2023-01-08T05:43:33.696Z,7.53
2023-01-08T05:46:00.788Z,7.52
2023-01-08T05:48:29.175Z,7.50
2023-01-08T05:50:55.844Z,7.48
2023-01-08T05:53:22.359Z,7.47
2023-01-08T05:55:49.063Z,7.43
2023-01-08T05:58:19.050Z,7.45
2023-01-08T06:00:45.846Z,7.43
2023-01-08T06:03:12.499Z,7.39
2023-01-08T06:05:39.168Z,7.33
2023-01-08T06:08:08.306Z,7.30
2023-01-08T06:10:35.047Z,7.25
2023-01-08T06:13:01.522Z,7.25
2023-01-08T06:15:28.032Z,7.23
2023-01-08T06:17:54.519Z,7.20
2023-01-08T06:20:20.966Z,7.19
2023-01-08T06:22:47.428Z,7.16
2023-01-08T06:25:14.025Z,7.17
2023-01-08T06:27:40.776Z,7.17
2023-01-08T06:30:08.061Z,7.20
2023-01-08T06:32:34.596Z,7.12
2023-01-08T06:35:01.057Z,7.10
2023-01-08T06:37:27.628Z,7.05
2023-01-08T06:39:54.100Z,7.05
2023-01-08T06:42:20.659Z,6.98
2023-01-08T06:44:47.125Z,6.95
2023-01-08T06:47:13.580Z,6.91
2023-01-08T06:49:40.108Z,6.91
2023-01-08T06:52:06.635Z,6.84
2023-01-08T06:54:33.163Z,6.79
2023-01-08T06:56:59.647Z,6.76
2023-01-08T06:59:26.095Z,6.78
2023-01-08T07:01:52.670Z,6.76
2023-01-08T07:04:19.881Z,6.72
2023-01-08T07:06:47.039Z,6.64
2023-01-08T07:09:15.086Z,6.63
2023-01-08T07:11:42.377Z,6.59
2023-01-08T07:14:09.182Z,6.54
2023-01-08T07:16:36.249Z,6.53
2023-01-08T07:19:02.769Z,6.49
2023-01-08T07:21:29.298Z,6.48
2023-01-08T07:23:55.787Z,6.40
2023-01-08T07:26:22.359Z,6.38
2023-01-08T07:28:48.893Z,6.38
2023-01-08T07:31:15.457Z,6.37
2023-01-08T07:33:42.028Z,6.37
2023-01-08T07:36:08.873Z,6.35
2023-01-08T07:38:35.455Z,6.31
2023-01-08T07:41:02.000Z,6.29
2023-01-08T07:43:30.064Z,6.27
2023-01-08T07:45:57.293Z,6.28
2023-01-08T07:48:24.036Z,6.27
2023-01-08T07:50:50.559Z,6.29
2023-01-08T07:53:17.775Z,6.29
2023-01-08T07:55:44.690Z,6.30
2023-01-08T07:58:14.676Z,6.32
2023-01-08T08:00:42.073Z,6.28
2023-01-08T08:03:11.764Z,6.27
2023-01-08T08:05:38.948Z,6.29
2023-01-08T08:08:10.521Z,6.25
2023-01-08T08:10:37.536Z,6.27
2023-01-08T08:13:04.306Z,6.25
2023-01-08T08:15:30.876Z,6.25
2023-01-08T08:17:57.352Z,6.24
2023-01-08T08:20:24.243Z,6.27
2023-01-08T08:22:51.047Z,6.28
2023-01-08T08:25:17.696Z,6.26
2023-01-08T08:27:44.788Z,6.29
2023-01-08T08:30:12.254Z,6.30
2023-01-08T08:32:38.847Z,6.34
2023-01-08T08:35:05.950Z,6.36
2023-01-08T08:37:32.439Z,6.34
2023-01-08T08:39:58.879Z,6.40
2023-01-08T08:42:25.348Z,6.42
2023-01-08T08:44:51.843Z,6.43
2023-01-08T08:47:18.341Z,6.42
2023-01-08T08:49:44.785Z,6.42
2023-01-08T08:52:11.262Z,6.41
2023-01-08T08:54:41.549Z,6.41
2023-01-08T08:57:09.312Z,6.41
2023-01-08T08:59:36.358Z,6.39
2023-01-08T09:02:03.430Z,6.35
2023-01-08T09:04:34.057Z,6.35
2023-01-08T09:07:00.717Z,6.37
2023-01-08T09:09:28.952Z,6.36
2023-01-08T09:11:56.280Z,6.37
2023-01-08T09:14:22.809Z,6.47
2023-01-08T09:16:49.264Z,6.48
2023-01-08T09:19:15.752Z,6.51
2023-01-08T09:21:42.465Z,6.55
2023-01-08T09:24:09.515Z,6.61
2023-01-08T09:26:36.180Z,6.69
2023-01-08T09:29:02.667Z,6.74
2023-01-08T09:31:29.228Z,6.80
2023-01-08T09:33:55.759Z,6.85
2023-01-08T09:36:22.225Z,6.90
2023-01-08T09:38:48.741Z,6.98
2023-01-08T09:41:29.075Z,7.02
2023-01-08T09:43:58.454Z,7.11
2023-01-08T09:46:28.188Z,7.16
2023-01-08T09:48:59.918Z,7.22
2023-01-08T09:51:33.906Z,7.26
2023-01-08T09:54:01.034Z,7.31
2023-01-08T09:56:28.456Z,7.41
2023-01-08T09:58:58.606Z,7.48
2023-01-08T10:01:29.503Z,7.54
2023-01-08T10:04:03.974Z,7.59
2023-01-08T10:06:31.239Z,7.63
2023-01-08T10:08:58.685Z,7.66
2023-01-08T10:11:28.416Z,7.78
2023-01-08T10:13:57.142Z,7.85
2023-01-08T10:16:31.197Z,7.89
2023-01-08T10:19:00.087Z,8.00
2023-01-08T10:21:33.087Z,8.01
2023-01-08T10:23:59.594Z,8.05
2023-01-08T10:26:36.509Z,8.12
2023-01-08T10:29:29.386Z,8.13
2023-01-08T10:31:58.605Z,8.17
2023-01-08T10:34:31.934Z,8.27
2023-01-08T10:36:58.674Z,8.35
2023-01-08T10:39:30.827Z,8.57
2023-01-08T10:42:05.424Z,8.66
2023-01-08T10:44:33.517Z,8.77
2023-01-08T10:47:01.269Z,8.81
2023-01-08T10:49:36.847Z,8.83
2023-01-08T10:52:03.678Z,8.96
2023-01-08T10:54:33.633Z,8.94
2023-01-08T10:57:02.397Z,8.95
2023-01-08T10:59:29.411Z,8.92
2023-01-08T11:01:58.281Z,8.97
2023-01-08T11:04:34.072Z,9.04
2023-01-08T11:07:03.195Z,9.10
2023-01-08T11:09:47.980Z,9.11
2023-01-08T11:12:33.887Z,9.21
2023-01-08T11:15:00.672Z,9.21
2023-01-08T11:20:33.266Z,9.22
2023-01-08T11:23:14.711Z,9.29
2023-01-08T11:25:44.707Z,9.29
2023-01-08T11:28:19.488Z,9.33
2023-01-08T11:30:54.772Z,9.51
2023-01-08T11:33:26.970Z,9.47
2023-01-08T11:36:02.121Z,9.48
2023-01-08T11:38:28.671Z,9.39
2023-01-08T11:41:10.350Z,9.43
2023-01-08T11:44:01.181Z,9.46
2023-01-08T11:46:52.319Z,9.40
2023-01-08T11:49:51.082Z,9.52
2023-01-08T11:52:41.289Z,9.62
2023-01-08T11:55:26.848Z,9.65
2023-01-08T11:58:02.152Z,9.70
2023-01-08T12:00:32.553Z,9.72
2023-01-08T12:03:03.208Z,9.72
2023-01-08T12:05:48.823Z,9.75
2023-01-08T12:08:48.447Z,9.78
2023-01-08T12:11:20.782Z,9.76
2023-01-08T12:14:08.956Z,9.73
2023-01-08T12:16:44.432Z,9.80
2023-01-08T12:19:31.159Z,9.85
2023-01-08T12:22:34.400Z,9.88
2023-01-08T12:25:22.744Z,9.89
2023-01-08T12:28:02.270Z,9.80
2023-01-08T12:30:37.624Z,9.76
2023-01-08T12:33:21.203Z,9.68
2023-01-08T12:35:55.080Z,9.65
2023-01-08T12:38:44.623Z,9.60
2023-01-08T12:41:17.188Z,9.59
2023-01-08T12:43:53.257Z,9.66
2023-01-08T12:46:20.949Z,9.64
2023-01-08T12:48:51.790Z,9.62
2023-01-08T12:51:32.540Z,9.65
2023-01-08T12:54:29.321Z,9.61
2023-01-08T12:57:07.324Z,9.62
2023-01-08T12:59:52.948Z,9.72
2023-01-08T13:02:50.317Z,9.67
2023-01-08T13:05:19.880Z,9.61
2023-01-08T13:07:49.453Z,9.59
2023-01-08T13:10:28.726Z,9.72
2023-01-08T13:12:55.652Z,9.80
2023-01-08T13:15:25.885Z,9.94
2023-01-08T13:17:54.980Z,10.04
2023-01-08T13:20:30.336Z,10.07
2023-01-08T13:22:59.632Z,10.06
2023-01-08T13:25:29.962Z,9.91
2023-01-08T13:27:56.784Z,9.78
2023-01-08T13:30:35.175Z,9.73
2023-01-08T13:33:02.592Z,9.75
2023-01-08T13:35:31.443Z,9.81
2023-01-08T13:38:10.141Z,9.85
2023-01-08T13:40:43.685Z,9.90
2023-01-08T13:43:22.647Z,9.86
2023-01-08T13:45:58.264Z,9.86
2023-01-08T13:48:28.290Z,9.87
2023-01-08T13:50:55.593Z,9.84
2023-01-08T13:53:23.038Z,9.87
2023-01-08T13:56:09.914Z,9.85
2023-01-08T13:58:40.907Z,9.85
2023-01-08T14:01:10.061Z,9.86
2023-01-08T14:03:38.716Z,9.83
2023-01-08T14:06:19.790Z,9.77
2023-01-08T14:09:04.627Z,9.74
2023-01-08T14:11:43.827Z,9.68
2023-01-08T14:14:16.184Z,9.62
2023-01-08T14:16:43.438Z,9.52
2023-01-08T14:19:22.472Z,9.44
2023-01-08T14:21:54.950Z,9.41
2023-01-08T14:24:24.181Z,9.42
2023-01-08T14:26:58.625Z,9.43
2023-01-08T14:29:27.750Z,9.43
2023-01-08T14:31:57.057Z,9.44
2023-01-08T14:34:25.967Z,9.39
2023-01-08T14:36:54.181Z,9.37
2023-01-08T14:39:33.112Z,9.37
2023-01-08T14:42:29.334Z,9.35
2023-01-08T14:44:58.423Z,9.33
2023-01-08T14:47:31.029Z,9.29
2023-01-08T14:49:57.636Z,9.24
2023-01-08T14:52:24.307Z,9.22
2023-01-08T14:54:56.286Z,9.16
2023-01-08T14:57:24.343Z,9.12
2023-01-08T14:59:57.347Z,9.09
2023-01-08T15:02:31.380Z,9.08
2023-01-08T15:05:02.602Z,9.03
2023-01-08T15:07:29.496Z,8.99
2023-01-08T15:10:01.276Z,8.97
2023-01-08T15:12:32.333Z,8.91
2023-01-08T15:15:22.046Z,8.90
2023-01-08T15:17:48.627Z,8.87
2023-01-08T15:20:19.979Z,8.82
2023-01-08T15:22:46.947Z,8.78
2023-01-08T15:25:18.860Z,8.74
2023-01-08T15:28:00.757Z,8.69
2023-01-08T15:30:35.122Z,8.63
2023-01-08T15:33:28.977Z,8.62
2023-01-08T15:35:56.338Z,8.54
2023-01-08T15:38:23.911Z,8.50
2023-01-08T15:40:53.387Z,8.48
2023-01-08T15:43:20.111Z,8.41
2023-01-08T15:45:48.699Z,8.37
2023-01-08T15:48:15.612Z,8.31
2023-01-08T15:50:44.384Z,8.21
2023-01-08T15:53:16.820Z,8.17
2023-01-08T15:55:44.466Z,8.10
2023-01-08T15:58:12.628Z,8.05
2023-01-08T16:00:40.675Z,7.96
2023-01-08T16:03:07.762Z,7.91
2023-01-08T16:05:35.463Z,7.81
2023-01-08T16:08:02.137Z,7.77
2023-01-08T16:10:29.262Z,7.70
2023-01-08T16:12:56.133Z,7.68
2023-01-08T16:15:22.843Z,7.65
2023-01-08T16:17:49.301Z,7.61
2023-01-08T16:20:16.873Z,7.58
2023-01-08T16:22:43.746Z,7.54
2023-01-08T16:25:11.236Z,7.52
2023-01-08T16:27:39.429Z,7.51
2023-01-08T16:30:08.083Z,7.46
2023-01-08T16:32:34.639Z,7.49
2023-01-08T16:35:01.089Z,7.47
2023-01-08T16:37:27.630Z,7.41
2023-01-08T16:39:54.119Z,7.43
2023-01-08T16:42:20.604Z,7.41
2023-01-08T16:44:47.077Z,7.36
2023-01-08T16:47:13.595Z,7.33
2023-01-08T16:49:41.682Z,7.34
2023-01-08T16:52:09.662Z,7.33
2023-01-08T16:54:36.953Z,7.29
2023-01-08T16:57:03.451Z,7.31
2023-01-08T16:59:29.960Z,7.36
2023-01-08T17:01:56.484Z,7.39
2023-01-08T17:04:23.000Z,7.43
2023-01-08T17:06:50.019Z,7.51
2023-01-08T17:09:16.718Z,7.53
2023-01-08T17:11:43.325Z,7.53
2023-01-08T17:14:10.135Z,7.54
2023-01-08T17:16:36.796Z,7.60
2023-01-08T17:19:03.820Z,7.63
2023-01-08T17:21:30.388Z,7.67
2023-01-08T17:23:56.867Z,7.74
2023-01-08T17:26:23.407Z,7.76
2023-01-08T17:28:49.965Z,7.82
2023-01-08T17:31:18.597Z,7.84
2023-01-08T17:33:49.934Z,7.89
2023-01-08T17:36:19.465Z,7.89
2023-01-08T17:38:50.678Z,7.96
2023-01-08T17:41:41.554Z,7.97
2023-01-08T17:44:12.098Z,7.99
2023-01-08T17:46:42.274Z,8.03
2023-01-08T17:49:11.157Z,8.05
2023-01-08T17:51:38.639Z,8.02
2023-01-08T17:54:05.216Z,7.99
2023-01-08T17:56:31.752Z,8.02
2023-01-08T17:58:58.272Z,8.02
2023-01-08T18:01:24.832Z,7.98
2023-01-08T18:03:52.599Z,7.92
2023-01-08T18:06:19.940Z,7.90
2023-01-08T18:08:46.561Z,7.87
2023-01-08T18:11:13.158Z,7.85
2023-01-08T18:13:39.729Z,7.83
2023-01-08T18:16:09.219Z,7.79
2023-01-08T18:18:36.324Z,7.77
2023-01-08T18:21:03.043Z,7.77
2023-01-08T18:23:29.744Z,7.76
2023-01-08T18:25:56.627Z,7.76
2023-01-08T18:28:23.293Z,7.73
2023-01-08T18:30:49.790Z,7.71
2023-01-08T18:33:16.259Z,7.76
2023-01-08T18:35:42.706Z,7.81
2023-01-08T18:38:15.470Z,7.82
2023-01-08T18:40:43.235Z,7.82
2023-01-08T18:43:10.399Z,7.83
2023-01-08T18:45:38.707Z,7.80
2023-01-08T18:48:09.529Z,7.75
2023-01-08T18:50:40.384Z,7.76
2023-01-08T18:53:08.612Z,7.74
2023-01-08T18:55:37.155Z,7.72
2023-01-08T18:58:04.602Z,7.75
2023-01-08T19:00:31.263Z,7.70
2023-01-08T19:02:57.819Z,7.62
2023-01-08T19:05:24.670Z,7.61
2023-01-08T19:07:51.230Z,7.59
2023-01-08T19:10:17.865Z,7.56
2023-01-08T19:12:44.797Z,7.53
2023-01-08T19:15:11.740Z,7.52
2023-01-08T19:17:38.249Z,7.49
2023-01-08T19:20:05.251Z,7.48
2023-01-08T19:22:32.636Z,7.46
2023-01-08T19:24:59.136Z,7.41
2023-01-08T19:27:26.115Z,7.40
2023-01-08T19:29:52.678Z,7.36
2023-01-08T19:32:19.161Z,7.37
2023-01-08T19:34:45.848Z,7.41
2023-01-08T19:37:13.783Z,7.39
2023-01-08T19:39:40.605Z,7.41
2023-01-08T19:42:25.419Z,7.46
2023-01-08T19:44:51.885Z,7.49
2023-01-08T19:47:18.360Z,7.53
2023-01-08T19:49:48.940Z,7.53
2023-01-08T19:52:16.719Z,7.58
2023-01-08T19:54:43.670Z,7.58
2023-01-08T19:57:10.151Z,7.60
2023-01-08T19:59:36.703Z,7.64
2023-01-08T20:02:03.412Z,7.62
2023-01-08T20:04:36.166Z,7.60
2023-01-08T20:07:02.657Z,7.59
2023-01-08T20:09:29.191Z,7.58
2023-01-08T20:11:55.971Z,7.54
2023-01-08T20:14:22.446Z,7.53
2023-01-08T20:16:49.001Z,7.53
2023-01-08T20:19:15.505Z,7.48
2023-01-08T20:21:42.084Z,7.48
2023-01-08T20:24:13.298Z,7.45
2023-01-08T20:26:40.700Z,7.45
2023-01-08T20:29:07.875Z,7.44
2023-01-08T20:31:34.957Z,7.46
2023-01-08T20:34:04.630Z,7.49
2023-01-08T20:36:33.713Z,7.49
2023-01-08T20:39:03.947Z,7.51
2023-01-08T20:41:30.468Z,7.53
2023-01-08T20:43:57.271Z,7.54
2023-01-08T20:46:28.370Z,7.57
2023-01-08T20:48:59.829Z,7.59
2023-01-08T20:51:26.496Z,7.60
2023-01-08T20:53:53.178Z,7.62
2023-01-08T20:56:19.718Z,7.62
2023-01-08T20:58:48.031Z,7.63
2023-01-08T21:01:19.339Z,7.61
2023-01-08T21:03:47.027Z,7.58
2023-01-08T21:06:17.324Z,7.56
2023-01-08T21:08:45.760Z,7.53
2023-01-08T21:11:14.203Z,7.51
2023-01-08T21:13:40.923Z,7.48
2023-01-08T21:16:22.004Z,7.43
2023-01-08T21:18:49.937Z,7.35
2023-01-08T21:21:22.576Z,7.33
2023-01-08T21:23:49.503Z,7.32
2023-01-08T21:26:17.606Z,7.31
2023-01-08T21:28:44.759Z,7.26
2023-01-08T21:31:11.307Z,7.26
2023-01-08T21:33:38.583Z,7.25
2023-01-08T21:36:07.405Z,7.23
2023-01-08T21:38:35.664Z,7.21
2023-01-08T21:41:05.461Z,7.17
2023-01-08T21:43:51.115Z,7.15
2023-01-08T21:46:17.858Z,7.14
2023-01-08T21:48:49.841Z,7.16
2023-01-08T21:51:36.039Z,7.16
2023-01-08T21:54:03.061Z,7.21
2023-01-08T21:56:30.367Z,7.20
2023-01-08T21:58:56.887Z,7.20
2023-01-08T22:01:23.542Z,7.24
2023-01-08T22:03:50.125Z,7.25
2023-01-08T22:06:16.683Z,7.29
2023-01-08T22:08:43.168Z,7.30
2023-01-08T22:11:09.814Z,7.36
2023-01-08T22:13:36.565Z,7.41
2023-01-08T22:16:05.563Z,7.43
2023-01-08T22:18:32.969Z,7.50
2023-01-08T22:21:01.348Z,7.53
2023-01-08T22:23:28.103Z,7.52
2023-01-08T22:25:54.615Z,7.58
2023-01-08T22:28:21.111Z,7.62
2023-01-08T22:30:47.596Z,7.63
2023-01-08T22:33:14.086Z,7.62
2023-01-08T22:35:40.528Z,7.62
2023-01-08T22:38:06.956Z,7.58
2023-01-08T22:40:33.420Z,7.58
2023-01-08T22:42:59.956Z,7.54
2023-01-08T22:45:26.423Z,7.53
2023-01-08T22:47:52.928Z,7.49
2023-01-08T22:50:19.471Z,7.45
2023-01-08T22:52:46.002Z,7.45
2023-01-08T22:55:12.486Z,7.42
2023-01-08T22:57:39.014Z,7.39
2023-01-08T23:00:07.674Z,7.34
2023-01-08T23:02:35.775Z,7.32
2023-01-08T23:05:02.330Z,7.31
2023-01-08T23:07:28.872Z,7.31
2023-01-08T23:09:55.345Z,7.30
2023-01-08T23:12:21.907Z,7.28
2023-01-08T23:14:48.512Z,7.28
2023-01-08T23:17:15.095Z,7.26
2023-01-08T23:19:42.314Z,7.25
2023-01-08T23:22:08.843Z,7.26
2023-01-08T23:24:35.343Z,7.26
2023-01-08T23:27:01.830Z,7.26
2023-01-08T23:29:29.637Z,7.25
2023-01-08T23:31:57.760Z,7.20
2023-01-08T23:34:25.186Z,7.17
2023-01-08T23:36:51.914Z,7.15
2023-01-08T23:39:18.399Z,7.11
2023-01-08T23:41:44.857Z,7.05
2023-01-08T23:44:13.815Z,7.05
2023-01-08T23:46:40.395Z,6.99
2023-01-08T23:49:07.501Z,6.98
2023-01-08T23:51:34.035Z,6.92
2023-01-08T23:54:00.692Z,6.92
2023-01-08T23:56:27.350Z,6.88
2023-01-08T23:58:53.984Z,6.87
